createdAt,value
2023-03-24T00:00:36.569Z,13.96
2023-03-24T00:03:04.656Z,13.94
2023-03-24T00:05:32.074Z,13.99
2023-03-24T00:08:02.267Z,13.81
2023-03-24T00:10:34.588Z,13.74
2023-03-24T00:13:02.487Z,13.65
2023-03-24T00:15:30.395Z,13.56
2023-03-24T00:17:58.189Z,13.68
2023-03-24T00:20:26.401Z,13.61
2023-03-24T00:23:01.946Z,13.68
2023-03-24T00:25:36.101Z,13.70
2023-03-24T00:28:07.151Z,13.69
2023-03-24T00:30:35.162Z,13.56
2023-03-24T00:33:04.166Z,13.40
2023-03-24T00:35:32.084Z,13.39
2023-03-24T00:38:00.577Z,13.44
2023-03-24T00:40:28.374Z,13.41
2023-03-24T00:42:56.161Z,13.39
2023-03-24T00:45:23.892Z,13.30
2023-03-24T00:47:54.305Z,13.38
2023-03-24T00:50:26.683Z,13.37
2023-03-24T00:52:55.823Z,13.43
2023-03-24T00:55:23.582Z,13.21
2023-03-24T00:57:51.342Z,13.26
2023-03-24T01:00:24.095Z,13.24
2023-03-24T01:02:55.631Z,13.19
2023-03-24T01:05:29.714Z,13.13
2023-03-24T01:07:59.355Z,13.20
2023-03-24T01:10:27.066Z,13.00
2023-03-24T01:13:00.031Z,13.01
2023-03-24T01:15:33.386Z,12.90
2023-03-24T01:18:04.178Z,12.85
2023-03-24T01:20:35.816Z,12.91
2023-03-24T01:23:07.366Z,12.87
2023-03-24T01:25:37.792Z,12.75
2023-03-24T01:28:05.365Z,12.78
2023-03-24T01:30:32.981Z,12.87
2023-03-24T01:33:00.987Z,12.74
2023-03-24T01:35:29.623Z,12.79
2023-03-24T01:37:58.906Z,12.61
2023-03-24T01:40:31.734Z,12.61
2023-03-24T01:42:59.873Z,12.77
2023-03-24T01:45:40.450Z,12.66
2023-03-24T01:48:13.197Z,12.70
2023-03-24T01:50:43.251Z,12.56
2023-03-24T01:53:11.205Z,12.39
2023-03-24T01:55:39.024Z,12.48
2023-03-24T01:58:07.399Z,12.52
2023-03-24T02:00:38.040Z,12.33
2023-03-24T02:03:14.823Z,12.41
2023-03-24T02:05:45.476Z,12.41
2023-03-24T02:08:34.587Z,12.50
2023-03-24T02:11:02.400Z,12.47
2023-03-24T02:13:31.359Z,12.50
2023-03-24T02:16:12.607Z,12.33
2023-03-24T02:18:55.969Z,12.35
2023-03-24T02:21:26.537Z,12.28
2023-03-24T02:24:14.420Z,12.23
2023-03-24T02:26:49.462Z,12.30
2023-03-24T02:29:48.323Z,12.16
2023-03-24T02:32:24.912Z,12.13
2023-03-24T02:35:36.831Z,12.17
2023-03-24T02:38:10.427Z,12.19
2023-03-24T02:40:59.875Z,12.15
2023-03-24T02:43:51.360Z,12.01
2023-03-24T02:46:22.957Z,12.16
2023-03-24T02:48:50.903Z,12.09
2023-03-24T02:51:32.910Z,12.00
2023-03-24T02:54:22.234Z,11.89
2023-03-24T02:57:09.873Z,11.82
2023-03-24T02:59:45.639Z,11.89
2023-03-24T03:02:23.064Z,11.91
2023-03-24T03:05:06.678Z,12.06
2023-03-24T03:07:37.428Z,11.91
2023-03-24T03:10:16.514Z,12.01
2023-03-24T03:12:48.637Z,11.97
2023-03-24T03:15:22.483Z,11.99
2023-03-24T03:18:28.999Z,11.90
2023-03-24T03:21:02.341Z,11.83
2023-03-24T03:23:54.481Z,11.89
2023-03-24T03:26:24.171Z,11.94
2023-03-24T03:28:57.840Z,11.88
2023-03-24T03:31:32.742Z,11.80
2023-03-24T03:34:17.306Z,11.87
2023-03-24T03:36:49.202Z,11.93
2023-03-24T03:39:24.116Z,11.86
2023-03-24T03:41:52.325Z,11.79
2023-03-24T03:44:19.905Z,11.90
2023-03-24T03:46:47.449Z,11.95
2023-03-24T03:49:15.825Z,11.90
2023-03-24T03:51:43.302Z,11.93
2023-03-24T03:54:13.611Z,11.91
2023-03-24T03:56:42.352Z,11.95
2023-03-24T03:59:23.379Z,12.05
2023-03-24T04:01:51.473Z,12.04
2023-03-24T04:05:06.554Z,12.07
2023-03-24T04:08:03.589Z,12.05
2023-03-24T04:10:42.028Z,12.09
2023-03-24T04:13:21.969Z,12.20
2023-03-24T04:16:04.177Z,12.04
2023-03-24T04:18:38.831Z,11.94
2023-03-24T04:21:28.572Z,11.93
2023-03-24T04:24:27.437Z,12.00
2023-03-24T04:27:21.957Z,12.03
2023-03-24T04:30:26.165Z,12.07
2023-03-24T04:32:58.708Z,12.02
2023-03-24T04:35:34.079Z,11.92
2023-03-24T04:38:09.268Z,11.92
2023-03-24T04:40:42.137Z,12.08
2023-03-24T04:43:14.127Z,12.02
2023-03-24T04:45:41.843Z,12.02
2023-03-24T04:48:14.180Z,11.86
2023-03-24T04:50:45.497Z,11.94
2023-03-24T04:53:13.993Z,11.93
2023-03-24T04:55:50.313Z,11.82
2023-03-24T04:58:20.374Z,11.84
2023-03-24T05:00:48.065Z,11.72
2023-03-24T05:03:17.412Z,11.64
2023-03-24T05:05:48.273Z,11.68
2023-03-24T05:08:19.295Z,11.73
2023-03-24T05:10:47.245Z,11.64
2023-03-24T05:13:15.404Z,11.43
2023-03-24T05:15:43.901Z,11.74
2023-03-24T05:18:13.669Z,11.76
2023-03-24T05:20:41.201Z,11.71
2023-03-24T05:23:09.195Z,11.73
2023-03-24T05:25:36.936Z,11.76
2023-03-24T05:28:04.643Z,11.74
2023-03-24T05:30:32.669Z,11.63
2023-03-24T05:33:01.191Z,11.70
2023-03-24T05:35:28.818Z,11.85
2023-03-24T05:37:56.229Z,11.92
2023-03-24T05:40:24.043Z,11.95
2023-03-24T05:42:51.875Z,11.95
2023-03-24T05:45:19.954Z,12.07
2023-03-24T05:47:48.764Z,12.26
2023-03-24T05:50:17.488Z,12.22
2023-03-24T05:52:46.231Z,12.32
2023-03-24T05:55:16.063Z,12.44
2023-03-24T05:57:43.783Z,12.64
2023-03-24T06:00:17.958Z,12.71
2023-03-24T06:02:46.787Z,12.81
2023-03-24T06:05:14.526Z,13.00
2023-03-24T06:07:42.523Z,13.19
2023-03-24T06:10:11.392Z,13.64
2023-03-24T06:12:39.320Z,13.78
2023-03-24T06:15:08.188Z,13.95
2023-03-24T06:17:38.613Z,13.97
2023-03-24T06:20:15.577Z,14.07
2023-03-24T06:22:44.979Z,14.39
2023-03-24T06:25:15.179Z,14.57
2023-03-24T06:27:48.073Z,14.43
2023-03-24T06:30:18.951Z,14.81
2023-03-24T06:32:47.149Z,14.83
2023-03-24T06:35:16.029Z,15.01
2023-03-24T06:37:43.707Z,15.11
2023-03-24T06:40:15.276Z,15.24
2023-03-24T06:42:43.049Z,15.53
2023-03-24T06:45:10.993Z,15.77
2023-03-24T06:47:38.788Z,15.75
2023-03-24T06:50:07.191Z,15.97
2023-03-24T06:52:35.571Z,16.10
2023-03-24T06:55:03.671Z,16.36
2023-03-24T06:57:31.156Z,16.51
2023-03-24T07:00:05.825Z,16.69
2023-03-24T07:02:35.774Z,17.07
2023-03-24T07:05:09.290Z,17.01
2023-03-24T07:10:08.925Z,17.33
2023-03-24T07:12:36.551Z,17.37
2023-03-24T07:15:04.561Z,17.38
2023-03-24T07:17:32.391Z,17.38
2023-03-24T07:20:01.376Z,17.28
2023-03-24T07:22:29.818Z,17.06
2023-03-24T07:25:01.607Z,17.25
2023-03-24T07:27:34.705Z,17.08
2023-03-24T07:30:02.661Z,17.28
2023-03-24T07:32:34.596Z,17.43
2023-03-24T07:35:02.676Z,17.67
2023-03-24T07:37:30.066Z,17.78
2023-03-24T07:39:57.491Z,17.96
2023-03-24T07:42:25.629Z,18.12
2023-03-24T07:44:53.440Z,18.23
2023-03-24T07:47:20.892Z,18.51
2023-03-24T07:49:48.729Z,18.64
2023-03-24T07:52:16.147Z,19.03
2023-03-24T07:54:44.020Z,19.05
2023-03-24T07:57:25.805Z,19.46
2023-03-24T07:59:53.279Z,19.52
2023-03-24T08:02:22.129Z,19.66
2023-03-24T08:04:54.819Z,19.83
2023-03-24T08:07:22.999Z,20.01
2023-03-24T08:09:50.710Z,19.93
2023-03-24T08:12:20.665Z,20.01
2023-03-24T08:14:48.306Z,20.07
2023-03-24T08:17:16.109Z,20.08
2023-03-24T08:19:58.186Z,20.15
2023-03-24T08:22:28.288Z,20.11
2023-03-24T08:24:55.763Z,20.14
2023-03-24T08:27:23.495Z,19.93
2023-03-24T08:29:51.272Z,20.03
2023-03-24T08:32:18.644Z,19.90
2023-03-24T08:34:46.081Z,20.15
2023-03-24T08:37:13.826Z,20.13
2023-03-24T08:39:41.306Z,20.18
2023-03-24T08:42:08.992Z,20.46
2023-03-24T08:44:36.721Z,20.36
2023-03-24T08:47:04.228Z,20.31
2023-03-24T08:49:31.644Z,20.23
2023-03-24T08:51:59.460Z,20.27
2023-03-24T08:54:26.835Z,20.03
2023-03-24T08:56:54.243Z,20.06
2023-03-24T08:59:21.991Z,20.15
2023-03-24T09:01:49.516Z,20.11
2023-03-24T09:04:17.019Z,20.09
2023-03-24T09:06:44.710Z,20.07
2023-03-24T09:09:12.144Z,20.05
2023-03-24T09:11:39.547Z,19.91
2023-03-24T09:14:07.375Z,20.13
2023-03-24T09:16:34.868Z,20.17
2023-03-24T09:19:02.362Z,20.28
2023-03-24T09:21:30.061Z,20.38
2023-03-24T09:23:57.465Z,20.54
2023-03-24T09:26:24.851Z,20.58
2023-03-24T09:28:52.529Z,20.52
2023-03-24T09:31:19.974Z,20.64
2023-03-24T09:33:47.607Z,20.57
2023-03-24T09:36:15.444Z,20.65
2023-03-24T09:38:42.958Z,20.62
2023-03-24T09:41:25.872Z,20.51
2023-03-24T09:44:07.881Z,20.55
2023-03-24T09:46:39.336Z,20.63
2023-03-24T09:49:16.699Z,20.84
2023-03-24T09:51:45.499Z,20.88
2023-03-24T09:54:49.138Z,20.97
2023-03-24T09:57:21.089Z,21.26
2023-03-24T09:59:48.852Z,21.32
2023-03-24T10:02:19.443Z,21.40
2023-03-24T10:04:50.024Z,21.48
2023-03-24T10:07:34.609Z,21.36
2023-03-24T10:10:03.423Z,21.50
2023-03-24T10:12:33.841Z,21.74
2023-03-24T10:15:37.150Z,21.86
2023-03-24T10:18:14.794Z,22.16
2023-03-24T10:21:13.178Z,22.24
2023-03-24T10:23:43.190Z,22.51
2023-03-24T10:26:49.753Z,22.35
2023-03-24T10:29:27.756Z,22.47
2023-03-24T10:32:01.009Z,22.43
2023-03-24T10:34:32.711Z,22.48
2023-03-24T10:37:02.848Z,22.42
2023-03-24T10:39:42.051Z,22.53
2023-03-24T10:42:21.956Z,22.41
2023-03-24T10:44:50.494Z,22.56
2023-03-24T10:47:30.703Z,22.45
2023-03-24T10:50:00.992Z,22.73
2023-03-24T10:52:43.804Z,22.73
2023-03-24T10:55:19.382Z,22.80
2023-03-24T10:57:49.885Z,23.08
2023-03-24T11:00:23.805Z,22.97
2023-03-24T11:02:57.704Z,23.18
2023-03-24T11:05:38.985Z,23.13
2023-03-24T11:08:26.012Z,23.29
2023-03-24T11:10:53.778Z,23.46
2023-03-24T11:13:42.874Z,23.51
2023-03-24T11:16:14.790Z,23.69
2023-03-24T11:18:59.435Z,23.76
2023-03-24T11:21:29.460Z,23.87
2023-03-24T11:24:01.501Z,24.10
2023-03-24T11:26:35.667Z,24.12
2023-03-24T11:29:14.765Z,23.92
2023-03-24T11:31:42.808Z,24.02
2023-03-24T11:34:16.825Z,24.10
2023-03-24T11:36:49.455Z,24.33
2023-03-24T11:39:19.788Z,24.46
2023-03-24T11:42:02.859Z,24.60
2023-03-24T11:44:42.215Z,24.64
2023-03-24T11:47:22.256Z,24.64
2023-03-24T11:50:11.351Z,24.68
2023-03-24T11:52:57.855Z,24.62
2023-03-24T11:55:41.988Z,24.65
2023-03-24T11:58:09.687Z,24.63
2023-03-24T12:00:45.361Z,24.54
2023-03-24T12:03:32.887Z,24.56
2023-03-24T12:06:07.109Z,24.09
2023-03-24T12:08:38.742Z,24.24
2023-03-24T12:11:06.270Z,24.38
2023-03-24T12:13:39.735Z,24.68
2023-03-24T12:16:13.566Z,24.78
2023-03-24T12:18:56.440Z,24.87
2023-03-24T12:21:37.602Z,24.63
2023-03-24T12:24:42.719Z,24.94
2023-03-24T12:27:25.656Z,24.87
2023-03-24T12:29:56.152Z,24.89
2023-03-24T12:32:56.366Z,24.97
2023-03-24T12:35:26.882Z,24.95
2023-03-24T12:38:14.826Z,24.77
2023-03-24T12:41:09.661Z,24.67
2023-03-24T12:43:47.358Z,24.72
2023-03-24T12:46:46.523Z,24.53
2023-03-24T12:49:46.048Z,24.54
2023-03-24T12:52:41.434Z,24.64
2023-03-24T12:55:30.021Z,24.40
2023-03-24T12:58:39.268Z,24.19
2023-03-24T13:01:35.554Z,24.40
2023-03-24T13:04:22.461Z,24.44
2023-03-24T13:06:58.506Z,24.33
2023-03-24T13:09:59.403Z,24.34
2023-03-24T13:12:36.154Z,24.11
2023-03-24T13:15:07.029Z,24.49
2023-03-24T13:18:12.054Z,24.75
2023-03-24T13:20:56.145Z,24.73
2023-03-24T13:23:59.368Z,24.72
2023-03-24T13:26:42.754Z,24.83
2023-03-24T13:29:45.665Z,24.82
2023-03-24T13:32:24.962Z,24.89
2023-03-24T13:34:59.181Z,24.55
2023-03-24T13:37:35.671Z,24.48
2023-03-24T13:40:09.876Z,24.36
2023-03-24T13:42:47.725Z,24.29
2023-03-24T13:45:23.706Z,24.30
2023-03-24T13:48:04.279Z,24.54
2023-03-24T13:50:33.675Z,24.63
2023-03-24T13:53:06.736Z,24.62
2023-03-24T13:55:37.875Z,24.50
2023-03-24T13:58:20.799Z,24.72
2023-03-24T14:01:17.593Z,24.60
2023-03-24T14:03:46.863Z,24.70
2023-03-24T14:06:17.651Z,24.61
2023-03-24T14:08:51.870Z,24.58
2023-03-24T14:11:31.575Z,24.63
2023-03-24T14:14:15.501Z,24.70
2023-03-24T14:16:43.173Z,24.63
2023-03-24T14:19:17.707Z,24.61
2023-03-24T14:21:45.529Z,24.66
2023-03-24T14:24:22.648Z,24.45
2023-03-24T14:26:50.202Z,24.48
2023-03-24T14:29:37.415Z,24.48
2023-03-24T14:32:17.224Z,24.67
2023-03-24T14:34:57.118Z,24.53
2023-03-24T14:37:27.119Z,24.35
2023-03-24T14:39:59.284Z,24.23
2023-03-24T14:42:36.115Z,24.23
2023-03-24T14:45:23.705Z,24.38
2023-03-24T14:47:59.008Z,24.29
2023-03-24T14:50:27.758Z,23.90
2023-03-24T14:52:59.903Z,24.04
2023-03-24T14:55:28.009Z,24.25
2023-03-24T14:57:57.715Z,24.11
2023-03-24T15:00:31.131Z,24.12
2023-03-24T15:03:02.809Z,24.10
2023-03-24T15:05:31.606Z,24.23
2023-03-24T15:08:04.225Z,24.19
2023-03-24T15:10:36.731Z,24.31
2023-03-24T15:13:04.845Z,24.20
2023-03-24T15:15:32.748Z,24.17
2023-03-24T15:18:00.227Z,24.15
2023-03-24T15:20:33.680Z,24.02
2023-03-24T15:23:17.578Z,23.99
2023-03-24T15:25:47.682Z,23.83
2023-03-24T15:28:19.648Z,23.95
2023-03-24T15:30:48.854Z,23.90
2023-03-24T15:33:17.238Z,23.99
2023-03-24T15:35:45.497Z,23.99
2023-03-24T15:38:21.849Z,23.84
2023-03-24T15:40:56.892Z,23.68
2023-03-24T15:43:25.693Z,23.76
2023-03-24T15:46:04.600Z,23.72
2023-03-24T15:48:38.134Z,23.72
2023-03-24T15:51:11.696Z,23.70
2023-03-24T15:53:56.822Z,23.53
2023-03-24T15:56:28.720Z,23.50
2023-03-24T15:59:09.228Z,23.36
2023-03-24T16:01:38.771Z,23.29
2023-03-24T16:04:17.826Z,23.38
2023-03-24T16:06:53.975Z,23.38
2023-03-24T16:09:22.445Z,23.25
2023-03-24T16:11:49.845Z,23.26
2023-03-24T16:14:24.265Z,23.26
2023-03-24T16:16:57.190Z,23.28
2023-03-24T16:19:25.149Z,23.23
2023-03-24T16:21:54.923Z,23.12
2023-03-24T16:24:22.846Z,23.12
2023-03-24T16:26:50.303Z,23.12
2023-03-24T16:29:24.737Z,22.98
2023-03-24T16:31:53.711Z,23.00
2023-03-24T16:34:22.338Z,22.86
2023-03-24T16:36:51.768Z,22.84
2023-03-24T16:39:21.352Z,22.70
2023-03-24T16:41:49.193Z,22.76
2023-03-24T16:44:19.440Z,22.80
2023-03-24T16:46:48.164Z,22.79
2023-03-24T16:49:17.418Z,22.54
2023-03-24T16:51:45.737Z,22.66
2023-03-24T16:54:13.789Z,22.53
2023-03-24T16:56:41.510Z,22.43
2023-03-24T16:59:09.296Z,22.39
2023-03-24T17:01:41.450Z,22.46
2023-03-24T17:04:13.700Z,22.54
2023-03-24T17:06:43.759Z,22.29
2023-03-24T17:09:12.611Z,22.16
2023-03-24T17:11:45.416Z,22.16
2023-03-24T17:14:13.197Z,22.22
2023-03-24T17:16:46.306Z,22.14
2023-03-24T17:19:16.433Z,22.12
2023-03-24T17:21:50.832Z,22.05
2023-03-24T17:24:18.853Z,22.07
2023-03-24T17:26:46.222Z,22.03
2023-03-24T17:29:13.813Z,21.94
2023-03-24T17:31:43.181Z,21.87
2023-03-24T17:34:21.641Z,21.82
2023-03-24T17:36:51.230Z,21.79
2023-03-24T17:39:20.526Z,21.75
2023-03-24T17:41:48.088Z,21.75
2023-03-24T17:44:16.757Z,21.70
2023-03-24T17:46:44.522Z,21.68
2023-03-24T17:49:11.980Z,21.50
2023-03-24T17:51:40.044Z,21.48
2023-03-24T17:54:07.677Z,21.61
2023-03-24T17:56:35.470Z,21.52
2023-03-24T17:59:03.514Z,21.47
2023-03-24T18:01:35.090Z,21.36
2023-03-24T18:04:03.536Z,21.34
2023-03-24T18:06:31.094Z,21.42
2023-03-24T18:08:58.680Z,21.41
2023-03-24T18:11:26.488Z,21.36
2023-03-24T18:13:53.846Z,21.33
2023-03-24T18:16:22.360Z,21.16
2023-03-24T18:18:51.097Z,21.22
2023-03-24T18:21:19.077Z,21.18
2023-03-24T18:23:47.061Z,21.15
2023-03-24T18:26:17.163Z,21.23
2023-03-24T18:28:46.026Z,21.15
2023-03-24T18:31:20.144Z,21.09
2023-03-24T18:33:48.919Z,21.09
2023-03-24T18:36:21.138Z,21.14
2023-03-24T18:38:49.089Z,21.11
2023-03-24T18:41:18.452Z,21.11
2023-03-24T18:43:47.940Z,21.27
2023-03-24T18:46:16.679Z,21.15
2023-03-24T18:48:44.459Z,21.18
2023-03-24T18:51:12.183Z,21.10
2023-03-24T18:53:40.011Z,21.11
2023-03-24T18:56:08.327Z,21.09
2023-03-24T18:58:38.132Z,21.06
2023-03-24T19:01:09.104Z,21.10
2023-03-24T19:03:38.543Z,21.14
2023-03-24T19:06:07.868Z,21.16
2023-03-24T19:08:44.640Z,21.29
2023-03-24T19:11:16.057Z,21.30
2023-03-24T19:13:46.226Z,21.25
2023-03-24T19:16:16.340Z,21.20
2023-03-24T19:18:44.117Z,21.07
2023-03-24T19:21:12.695Z,21.01
2023-03-24T19:23:40.506Z,21.05
2023-03-24T19:26:07.916Z,21.03
2023-03-24T19:28:37.489Z,20.93
2023-03-24T19:31:08.800Z,20.91
2023-03-24T19:33:37.363Z,21.07
2023-03-24T19:36:06.376Z,21.17
2023-03-24T19:38:33.850Z,21.20
2023-03-24T19:41:08.413Z,21.12
2023-03-24T19:43:36.768Z,21.26
2023-03-24T19:46:05.308Z,21.13
2023-03-24T19:48:33.900Z,21.13
2023-03-24T19:51:01.658Z,21.09
2023-03-24T19:53:29.246Z,21.07
2023-03-24T19:55:58.219Z,20.91
2023-03-24T19:58:26.098Z,20.90
2023-03-24T20:00:53.582Z,20.85
2023-03-24T20:03:21.684Z,20.71
2023-03-24T20:05:50.102Z,20.64
2023-03-24T20:08:19.196Z,20.49
2023-03-24T20:10:47.198Z,20.44
2023-03-24T20:13:14.650Z,20.33
2023-03-24T20:15:42.177Z,20.30
2023-03-24T20:18:10.774Z,20.26
2023-03-24T20:20:38.998Z,20.11
2023-03-24T20:23:07.228Z,20.05
2023-03-24T20:25:35.143Z,19.37
2023-03-24T20:28:02.551Z,19.07
2023-03-24T20:30:31.199Z,19.06
2023-03-24T20:32:59.080Z,18.77
2023-03-24T20:35:28.036Z,18.82
2023-03-24T20:37:55.756Z,18.82
2023-03-24T20:40:24.722Z,18.59
2023-03-24T20:42:52.501Z,18.65
2023-03-24T20:45:19.969Z,18.35
2023-03-24T20:47:47.723Z,18.09
2023-03-24T20:50:15.508Z,18.19
2023-03-24T20:52:42.970Z,17.95
2023-03-24T20:55:11.668Z,17.92
2023-03-24T20:57:40.011Z,18.23
2023-03-24T21:00:13.431Z,18.03
2023-03-24T21:02:42.700Z,18.18
2023-03-24T21:05:11.172Z,18.32
2023-03-24T21:07:42.425Z,18.21
2023-03-24T21:10:10.587Z,18.14
2023-03-24T21:12:54.439Z,18.42
2023-03-24T21:15:25.006Z,18.50
2023-03-24T21:17:53.491Z,18.50
2023-03-24T21:20:22.133Z,18.55
2023-03-24T21:22:56.112Z,18.50
2023-03-24T21:25:26.444Z,18.38
2023-03-24T21:27:55.477Z,18.40
2023-03-24T21:30:24.048Z,18.30
2023-03-24T21:32:53.963Z,18.21
2023-03-24T21:35:22.486Z,18.34
2023-03-24T21:37:53.488Z,18.30
2023-03-24T21:40:23.645Z,18.35
2023-03-24T21:42:53.758Z,18.24
2023-03-24T21:45:23.183Z,18.15
2023-03-24T21:47:51.149Z,18.02
2023-03-24T21:50:23.166Z,17.97
2023-03-24T21:52:53.034Z,17.89
2023-03-24T21:55:21.652Z,17.79
2023-03-24T21:57:50.457Z,17.89
2023-03-24T22:00:21.012Z,17.72
2023-03-24T22:02:51.492Z,17.88
2023-03-24T22:05:21.250Z,18.24
2023-03-24T22:07:50.070Z,18.30
2023-03-24T22:10:29.644Z,18.25
2023-03-24T22:12:57.453Z,18.32
2023-03-24T22:15:24.969Z,18.17
2023-03-24T22:17:52.476Z,18.38
2023-03-24T22:20:21.145Z,18.55
2023-03-24T22:22:48.692Z,18.29
2023-03-24T22:25:18.120Z,18.48
2023-03-24T22:27:49.914Z,18.52
2023-03-24T22:30:18.766Z,18.33
2023-03-24T22:32:46.426Z,18.59
2023-03-24T22:35:13.976Z,18.67
2023-03-24T22:37:41.432Z,18.76
2023-03-24T22:40:09.480Z,18.36
2023-03-24T22:42:36.951Z,18.44
2023-03-24T22:45:05.132Z,18.36
2023-03-24T22:47:32.848Z,18.58
2023-03-24T22:50:00.366Z,18.53
2023-03-24T22:52:28.234Z,18.52
2023-03-24T22:54:55.994Z,18.37
2023-03-24T22:57:23.390Z,18.32
2023-03-24T22:59:50.862Z,18.44
2023-03-24T23:02:24.267Z,18.06
2023-03-24T23:04:51.887Z,18.09
2023-03-24T23:07:22.821Z,17.98
2023-03-24T23:09:50.354Z,17.94
2023-03-24T23:12:17.721Z,17.96
2023-03-24T23:14:46.454Z,17.87
2023-03-24T23:17:15.912Z,17.95
2023-03-24T23:19:43.556Z,17.98
2023-03-24T23:22:11.212Z,18.26
2023-03-24T23:24:39.302Z,18.19
2023-03-24T23:27:07.160Z,18.16
2023-03-24T23:29:39.013Z,18.18
2023-03-24T23:32:09.705Z,18.21
2023-03-24T23:34:42.640Z,18.20
2023-03-24T23:37:10.096Z,18.26
2023-03-24T23:39:37.853Z,18.26
2023-03-24T23:42:05.624Z,18.42
2023-03-24T23:44:33.060Z,18.27
2023-03-24T23:47:01.482Z,18.46
2023-03-24T23:49:28.887Z,18.30
2023-03-24T23:51:56.278Z,18.34
2023-03-24T23:54:24.025Z,18.42
2023-03-24T23:56:51.573Z,18.31
2023-03-24T23:59:18.965Z,17.84
